X  Stänga Metar väderdata för luftfart     EDDK Cologne Bonn Airport
Temperatur
18°C Temperatur
9°C Daggpunkt
56% Fuktighet



Vind
13 KM/T
8 MPH
4 M/S
7 KTS



210°
SSV
Nuvarande omständigheter

Area Regnskurar Area Regnskurar
Tryck 1017.95 (hPa) - 30.06 (inHg)
Synlighet 6 (mil) - 9.7 (km)
Flygplats
Flygplatskod EDDK

Plats: Cologne Bonn Airport
Distans: 56 (km)

Metar:
EDDK 281220Z AUTO 21007KT 170V270 9999 VCSH FEW///TCU 18/09 Q1018 NOSIG

Tid: 2024-05-28 14:20 CEST